sensor_id;sensor_type;location;lat;lon;timestamp;pressure;altitude;pressure_sealevel;temperature;humidity
49194;BME280;35029;50.804;12.866;2023-07-31T00:01:15;97455.78;;;14.97;83.91
49194;BME280;35029;50.804;12.866;2023-07-31T00:03:40;97483.63;;;15.01;83.75
49194;BME280;35029;50.804;12.866;2023-07-31T00:06:06;97476.69;;;15.12;84.11
49194;BME280;35029;50.804;12.866;2023-07-31T00:08:32;97490.25;;;15.10;83.73
49194;BME280;35029;50.804;12.866;2023-07-31T00:10:57;97480.97;;;15.13;83.34
49194;BME280;35029;50.804;12.866;2023-07-31T00:13:23;97488.31;;;15.17;83.49
49194;BME280;35029;50.804;12.866;2023-07-31T00:15:48;97478.41;;;15.06;82.98
49194;BME280;35029;50.804;12.866;2023-07-31T00:18:14;97480.41;;;15.11;84.23
49194;BME280;35029;50.804;12.866;2023-07-31T00:20:39;97473.22;;;15.11;83.82
49194;BME280;35029;50.804;12.866;2023-07-31T00:23:04;97468.44;;;15.01;83.11
49194;BME280;35029;50.804;12.866;2023-07-31T00:25:30;97445.22;;;14.90;83.11
49194;BME280;35029;50.804;12.866;2023-07-31T00:27:56;97462.41;;;15.06;83.01
49194;BME280;35029;50.804;12.866;2023-07-31T00:30:21;97466.25;;;15.10;82.38
49194;BME280;35029;50.804;12.866;2023-07-31T00:32:47;97463.56;;;15.10;82.58
49194;BME280;35029;50.804;12.866;2023-07-31T00:35:13;97457.31;;;15.16;81.91
49194;BME280;35029;50.804;12.866;2023-07-31T00:37:38;97450.22;;;15.22;82.71
49194;BME280;35029;50.804;12.866;2023-07-31T00:40:04;97440.69;;;15.14;81.41
49194;BME280;35029;50.804;12.866;2023-07-31T00:42:30;97439.78;;;15.20;82.26
49194;BME280;35029;50.804;12.866;2023-07-31T00:44:56;97447.09;;;15.25;81.32
49194;BME280;35029;50.804;12.866;2023-07-31T00:47:21;97436.88;;;15.22;81.49
49194;BME280;35029;50.804;12.866;2023-07-31T00:49:47;97426.31;;;15.27;80.75
49194;BME280;35029;50.804;12.866;2023-07-31T00:52:13;97435.03;;;15.34;81.32
49194;BME280;35029;50.804;12.866;2023-07-31T00:54:39;97417.97;;;15.35;79.98
49194;BME280;35029;50.804;12.866;2023-07-31T00:57:05;97422.22;;;15.48;80.48
49194;BME280;35029;50.804;12.866;2023-07-31T00:59:32;97388.81;;;15.22;79.08
49194;BME280;35029;50.804;12.866;2023-07-31T01:01:58;97432.78;;;15.55;79.03
49194;BME280;35029;50.804;12.866;2023-07-31T01:04:24;97423.72;;;15.56;79.01
49194;BME280;35029;50.804;12.866;2023-07-31T01:09:54;97427.31;;;15.62;80.46
49194;BME280;35029;50.804;12.866;2023-07-31T01:12:22;97416.19;;;15.53;80.87
49194;BME280;35029;50.804;12.866;2023-07-31T01:15:09;97425.00;;;15.53;79.99
49194;BME280;35029;50.804;12.866;2023-07-31T01:17:38;97429.19;;;15.61;78.61
49194;BME280;35029;50.804;12.866;2023-07-31T01:20:08;97425.00;;;15.65;78.67
49194;BME280;35029;50.804;12.866;2023-07-31T01:28:05;97423.31;;;15.88;77.22
49194;BME280;35029;50.804;12.866;2023-07-31T01:30:33;97418.56;;;15.90;75.75
49194;BME280;35029;50.804;12.866;2023-07-31T01:33:02;97411.97;;;15.81;76.61
49194;BME280;35029;50.804;12.866;2023-07-31T01:35:33;97418.31;;;15.92;75.81
49194;BME280;35029;50.804;12.866;2023-07-31T01:37:59;97419.59;;;15.89;75.49
49194;BME280;35029;50.804;12.866;2023-07-31T01:40:25;97417.03;;;15.94;76.00
49194;BME280;35029;50.804;12.866;2023-07-31T01:42:50;97424.56;;;15.97;76.56
49194;BME280;35029;50.804;12.866;2023-07-31T01:45:16;97416.66;;;16.02;76.16
49194;BME280;35029;50.804;12.866;2023-07-31T01:47:42;97418.84;;;16.05;77.75
49194;BME280;35029;50.804;12.866;2023-07-31T01:50:07;97419.88;;;16.04;77.18
49194;BME280;35029;50.804;12.866;2023-07-31T01:52:34;97419.22;;;15.97;77.56
49194;BME280;35029;50.804;12.866;2023-07-31T01:54:59;97425.38;;;15.98;78.39
49194;BME280;35029;50.804;12.866;2023-07-31T01:57:25;97414.50;;;15.87;80.26
49194;BME280;35029;50.804;12.866;2023-07-31T01:59:51;97404.53;;;15.83;81.67
49194;BME280;35029;50.804;12.866;2023-07-31T02:02:19;97425.53;;;15.79;80.28
49194;BME280;35029;50.804;12.866;2023-07-31T02:04:45;97423.00;;;15.72;82.20
49194;BME280;35029;50.804;12.866;2023-07-31T02:07:10;97424.28;;;15.70;81.67
49194;BME280;35029;50.804;12.866;2023-07-31T02:09:36;97421.25;;;15.66;83.82
49194;BME280;35029;50.804;12.866;2023-07-31T02:12:02;97426.03;;;15.64;86.27
49194;BME280;35029;50.804;12.866;2023-07-31T02:14:27;97401.81;;;15.42;86.66
49194;BME280;35029;50.804;12.866;2023-07-31T02:16:53;97410.88;;;15.29;87.98
49194;BME280;35029;50.804;12.866;2023-07-31T02:19:18;97407.72;;;15.32;89.99
49194;BME280;35029;50.804;12.866;2023-07-31T02:21:44;97412.25;;;15.32;90.05
49194;BME280;35029;50.804;12.866;2023-07-31T02:24:10;97387.66;;;15.06;92.65
49194;BME280;35029;50.804;12.866;2023-07-31T02:26:36;97409.13;;;15.11;94.16
49194;BME280;35029;50.804;12.866;2023-07-31T02:29:02;97414.81;;;15.03;96.02
49194;BME280;35029;50.804;12.866;2023-07-31T02:31:28;97409.97;;;15.00;97.61
49194;BME280;35029;50.804;12.866;2023-07-31T02:33:53;97410.97;;;14.87;98.00
49194;BME280;35029;50.804;12.866;2023-07-31T02:36:19;97411.59;;;14.89;98.56
49194;BME280;35029;50.804;12.866;2023-07-31T02:38:44;97397.75;;;14.92;99.49
49194;BME280;35029;50.804;12.866;2023-07-31T02:41:10;97399.41;;;14.93;99.84
49194;BME280;35029;50.804;12.866;2023-07-31T02:43:35;97372.47;;;14.83;100.00
49194;BME280;35029;50.804;12.866;2023-07-31T02:46:01;97390.00;;;14.91;100.00
49194;BME280;35029;50.804;12.866;2023-07-31T02:48:26;97385.47;;;14.79;100.00
49194;BME280;35029;50.804;12.866;2023-07-31T02:50:53;97396.94;;;14.80;100.00
49194;BME280;35029;50.804;12.866;2023-07-31T02:53:18;97382.56;;;14.69;100.00
49194;BME280;35029;50.804;12.866;2023-07-31T02:55:44;97377.34;;;14.74;100.00
49194;BME280;35029;50.804;12.866;2023-07-31T02:58:09;97371.31;;;14.79;100.00
49194;BME280;35029;50.804;12.866;2023-07-31T03:00:35;97375.47;;;14.75;100.00
49194;BME280;35029;50.804;12.866;2023-07-31T03:03:00;97379.41;;;14.72;100.00
49194;BME280;35029;50.804;12.866;2023-07-31T03:05:27;97375.13;;;14.71;100.00
49194;BME280;35029;50.804;12.866;2023-07-31T03:07:52;97373.50;;;14.70;100.00
49194;BME280;35029;50.804;12.866;2023-07-31T03:10:18;97362.72;;;14.77;100.00
49194;BME280;35029;50.804;12.866;2023-07-31T03:12:46;97370.03;;;14.81;100.00
49194;BME280;35029;50.804;12.866;2023-07-31T03:15:12;97365.50;;;14.82;100.00
49194;BME280;35029;50.804;12.866;2023-07-31T03:17:38;97372.00;;;14.86;100.00
49194;BME280;35029;50.804;12.866;2023-07-31T03:20:03;97362.94;;;14.63;100.00
49194;BME280;35029;50.804;12.866;2023-07-31T03:22:29;97376.19;;;14.70;100.00
49194;BME280;35029;50.804;12.866;2023-07-31T03:24:55;97375.34;;;14.69;100.00
49194;BME280;35029;50.804;12.866;2023-07-31T03:27:20;97361.69;;;14.66;100.00
49194;BME280;35029;50.804;12.866;2023-07-31T03:29:46;97355.53;;;14.65;100.00
49194;BME280;35029;50.804;12.866;2023-07-31T03:32:11;97364.78;;;14.63;100.00
49194;BME280;35029;50.804;12.866;2023-07-31T03:34:37;97375.66;;;14.61;100.00
49194;BME280;35029;50.804;12.866;2023-07-31T03:37:05;97360.72;;;14.60;100.00
49194;BME280;35029;50.804;12.866;2023-07-31T03:39:30;97367.81;;;14.66;100.00
49194;BME280;35029;50.804;12.866;2023-07-31T03:41:56;97373.94;;;14.55;100.00
49194;BME280;35029;50.804;12.866;2023-07-31T03:44:21;97375.53;;;14.44;100.00
49194;BME280;35029;50.804;12.866;2023-07-31T03:46:47;97357.34;;;14.41;100.00
49194;BME280;35029;50.804;12.866;2023-07-31T03:49:12;97339.25;;;14.43;100.00
49194;BME280;35029;50.804;12.866;2023-07-31T03:51:38;97362.22;;;14.56;100.00
49194;BME280;35029;50.804;12.866;2023-07-31T03:54:04;97358.50;;;14.45;100.00
49194;BME280;35029;50.804;12.866;2023-07-31T03:56:29;97334.25;;;14.35;100.00
49194;BME280;35029;50.804;12.866;2023-07-31T03:58:54;97361.97;;;14.46;100.00
49194;BME280;35029;50.804;12.866;2023-07-31T04:01:20;97359.06;;;14.47;100.00
49194;BME280;35029;50.804;12.866;2023-07-31T04:03:46;97358.13;;;14.42;100.00
49194;BME280;35029;50.804;12.866;2023-07-31T04:06:11;97354.88;;;14.40;100.00
49194;BME280;35029;50.804;12.866;2023-07-31T04:08:37;97350.59;;;14.39;100.00
49194;BME280;35029;50.804;12.866;2023-07-31T04:11:02;97356.16;;;14.37;100.00
49194;BME280;35029;50.804;12.866;2023-07-31T04:13:29;97349.44;;;14.34;100.00
49194;BME280;35029;50.804;12.866;2023-07-31T04:15:54;97352.69;;;14.48;100.00
49194;BME280;35029;50.804;12.866;2023-07-31T04:18:20;97344.13;;;14.58;100.00
49194;BME280;35029;50.804;12.866;2023-07-31T04:20:45;97338.09;;;14.51;100.00
49194;BME280;35029;50.804;12.866;2023-07-31T04:23:11;97352.72;;;14.60;100.00
49194;BME280;35029;50.804;12.866;2023-07-31T04:25:37;97333.09;;;14.43;100.00
49194;BME280;35029;50.804;12.866;2023-07-31T04:28:02;97332.75;;;14.51;100.00
49194;BME280;35029;50.804;12.866;2023-07-31T04:30:28;97335.31;;;14.58;100.00
49194;BME280;35029;50.804;12.866;2023-07-31T04:32:53;97338.31;;;14.61;100.00
49194;BME280;35029;50.804;12.866;2023-07-31T04:35:19;97346.66;;;14.53;100.00
49194;BME280;35029;50.804;12.866;2023-07-31T04:37:44;97318.72;;;14.56;100.00
49194;BME280;35029;50.804;12.866;2023-07-31T04:40:14;97325.50;;;14.70;100.00
49194;BME280;35029;50.804;12.866;2023-07-31T04:42:39;97318.16;;;14.53;100.00
49194;BME280;35029;50.804;12.866;2023-07-31T04:45:05;97321.75;;;14.59;100.00
49194;BME280;35029;50.804;12.866;2023-07-31T04:47:31;97312.13;;;14.58;100.00
49194;BME280;35029;50.804;12.866;2023-07-31T04:49:56;97301.59;;;14.63;100.00
49194;BME280;35029;50.804;12.866;2023-07-31T04:52:22;97304.41;;;14.68;100.00
49194;BME280;35029;50.804;12.866;2023-07-31T04:54:47;97306.59;;;14.83;100.00
49194;BME280;35029;50.804;12.866;2023-07-31T04:57:14;97311.22;;;14.88;100.00
49194;BME280;35029;50.804;12.866;2023-07-31T04:59:39;97297.31;;;14.74;100.00
49194;BME280;35029;50.804;12.866;2023-07-31T05:02:07;97298.09;;;14.75;100.00
49194;BME280;35029;50.804;12.866;2023-07-31T05:04:32;97304.84;;;14.89;100.00
49194;BME280;35029;50.804;12.866;2023-07-31T05:06:58;97288.34;;;14.80;100.00
49194;BME280;35029;50.804;12.866;2023-07-31T05:09:23;97308.41;;;15.07;100.00
49194;BME280;35029;50.804;12.866;2023-07-31T05:11:49;97307.03;;;15.04;100.00
49194;BME280;35029;50.804;12.866;2023-07-31T05:14:14;97309.81;;;14.97;100.00
49194;BME280;35029;50.804;12.866;2023-07-31T05:16:41;97310.50;;;15.04;100.00
49194;BME280;35029;50.804;12.866;2023-07-31T05:19:06;97301.09;;;15.02;100.00
49194;BME280;35029;50.804;12.866;2023-07-31T05:21:32;97309.34;;;15.00;100.00
49194;BME280;35029;50.804;12.866;2023-07-31T05:23:58;97292.41;;;14.95;100.00
49194;BME280;35029;50.804;12.866;2023-07-31T05:26:23;97308.41;;;15.07;100.00
49194;BME280;35029;50.804;12.866;2023-07-31T05:28:49;97287.19;;;14.88;100.00
49194;BME280;35029;50.804;12.866;2023-07-31T05:31:14;97307.34;;;15.08;100.00
49194;BME280;35029;50.804;12.866;2023-07-31T05:33:40;97305.28;;;14.98;100.00
49194;BME280;35029;50.804;12.866;2023-07-31T05:36:05;97299.59;;;14.94;100.00
49194;BME280;35029;50.804;12.866;2023-07-31T05:38:31;97308.06;;;15.03;100.00
49194;BME280;35029;50.804;12.866;2023-07-31T05:40:57;97297.88;;;15.00;100.00
49194;BME280;35029;50.804;12.866;2023-07-31T05:43:23;97313.75;;;15.07;100.00
49194;BME280;35029;50.804;12.866;2023-07-31T05:45:48;97313.03;;;15.11;100.00
49194;BME280;35029;50.804;12.866;2023-07-31T05:48:14;97310.50;;;15.04;100.00
49194;BME280;35029;50.804;12.866;2023-07-31T05:50:39;97312.81;;;15.01;100.00
49194;BME280;35029;50.804;12.866;2023-07-31T05:53:06;97310.03;;;15.08;100.00
49194;BME280;35029;50.804;12.866;2023-07-31T05:55:33;97312.44;;;15.09;100.00
49194;BME280;35029;50.804;12.866;2023-07-31T05:57:58;97308.25;;;15.13;100.00
49194;BME280;35029;50.804;12.866;2023-07-31T06:00:24;97317.34;;;15.12;100.00
49194;BME280;35029;50.804;12.866;2023-07-31T06:02:51;97312.31;;;15.16;100.00
49194;BME280;35029;50.804;12.866;2023-07-31T06:05:16;97305.25;;;15.21;100.00
49194;BME280;35029;50.804;12.866;2023-07-31T06:07:42;97302.66;;;15.27;100.00
49194;BME280;35029;50.804;12.866;2023-07-31T06:10:08;97306.22;;;15.44;100.00
49194;BME280;35029;50.804;12.866;2023-07-31T06:12:35;97307.06;;;15.45;100.00
49194;BME280;35029;50.804;12.866;2023-07-31T06:15:02;97310.53;;;15.45;100.00
49194;BME280;35029;50.804;12.866;2023-07-31T06:17:28;97307.13;;;15.50;100.00
49194;BME280;35029;50.804;12.866;2023-07-31T06:19:54;97305.59;;;15.54;100.00
49194;BME280;35029;50.804;12.866;2023-07-31T06:22:20;97301.25;;;15.65;100.00
49194;BME280;35029;50.804;12.866;2023-07-31T06:24:46;97301.50;;;15.63;100.00
49194;BME280;35029;50.804;12.866;2023-07-31T06:27:12;97294.22;;;15.59;100.00
49194;BME280;35029;50.804;12.866;2023-07-31T06:29:37;97299.56;;;15.59;100.00
49194;BME280;35029;50.804;12.866;2023-07-31T06:32:03;97298.44;;;15.71;100.00
49194;BME280;35029;50.804;12.866;2023-07-31T06:34:29;97299.28;;;15.72;100.00
49194;BME280;35029;50.804;12.866;2023-07-31T06:36:56;97304.94;;;15.76;100.00
49194;BME280;35029;50.804;12.866;2023-07-31T06:39:21;97306.44;;;15.83;100.00
49194;BME280;35029;50.804;12.866;2023-07-31T06:41:47;97265.50;;;15.66;100.00
49194;BME280;35029;50.804;12.866;2023-07-31T06:44:13;97305.09;;;15.98;100.00
49194;BME280;35029;50.804;12.866;2023-07-31T06:46:39;97298.03;;;15.92;100.00
49194;BME280;35029;50.804;12.866;2023-07-31T06:49:04;97302.41;;;15.98;100.00
49194;BME280;35029;50.804;12.866;2023-07-31T06:51:30;97285.56;;;15.97;100.00
49194;BME280;35029;50.804;12.866;2023-07-31T06:53:57;97296.22;;;16.09;100.00
49194;BME280;35029;50.804;12.866;2023-07-31T06:56:23;97291.09;;;16.08;98.57
49194;BME280;35029;50.804;12.866;2023-07-31T06:58:48;97305.13;;;16.15;100.00
49194;BME280;35029;50.804;12.866;2023-07-31T07:01:14;97304.38;;;16.19;98.77
49194;BME280;35029;50.804;12.866;2023-07-31T07:03:40;97310.72;;;16.30;97.64
49194;BME280;35029;50.804;12.866;2023-07-31T07:06:05;97311.28;;;16.32;96.36
49194;BME280;35029;50.804;12.866;2023-07-31T07:08:31;97303.16;;;16.44;97.40
49194;BME280;35029;50.804;12.866;2023-07-31T07:10:57;97297.59;;;16.46;95.97
49194;BME280;35029;50.804;12.866;2023-07-31T07:13:22;97294.00;;;16.40;96.67
49194;BME280;35029;50.804;12.866;2023-07-31T07:15:48;97304.25;;;16.43;95.55
49194;BME280;35029;50.804;12.866;2023-07-31T07:18:14;97291.03;;;16.36;93.90
49194;BME280;35029;50.804;12.866;2023-07-31T07:20:45;97306.09;;;16.43;95.36
49194;BME280;35029;50.804;12.866;2023-07-31T07:23:12;97307.81;;;16.49;96.61
49194;BME280;35029;50.804;12.866;2023-07-31T07:25:38;97308.91;;;16.36;94.83
49194;BME280;35029;50.804;12.866;2023-07-31T07:28:03;97308.47;;;16.39;96.50
49194;BME280;35029;50.804;12.866;2023-07-31T07:30:29;97318.75;;;16.47;95.17
49194;BME280;35029;50.804;12.866;2023-07-31T07:32:54;97304.72;;;16.40;94.30
49194;BME280;35029;50.804;12.866;2023-07-31T07:35:20;97309.28;;;16.56;95.83
49194;BME280;35029;50.804;12.866;2023-07-31T07:37:48;97320.34;;;16.65;96.44
49194;BME280;35029;50.804;12.866;2023-07-31T07:40:15;97306.66;;;16.62;92.62
49194;BME280;35029;50.804;12.866;2023-07-31T07:42:41;97308.44;;;16.73;93.29
49194;BME280;35029;50.804;12.866;2023-07-31T07:45:07;97302.66;;;16.81;92.57
49194;BME280;35029;50.804;12.866;2023-07-31T07:47:32;97314.91;;;16.94;92.81
49194;BME280;35029;50.804;12.866;2023-07-31T07:49:58;97310.06;;;16.91;91.18
49194;BME280;35029;50.804;12.866;2023-07-31T07:52:24;97308.75;;;16.94;89.62
49194;BME280;35029;50.804;12.866;2023-07-31T07:54:49;97305.50;;;16.92;90.34
49194;BME280;35029;50.804;12.866;2023-07-31T07:57:15;97306.38;;;16.97;90.08
49194;BME280;35029;50.804;12.866;2023-07-31T07:59:42;97310.06;;;16.91;89.09
49194;BME280;35029;50.804;12.866;2023-07-31T08:02:14;97320.19;;;16.89;88.71
49194;BME280;35029;50.804;12.866;2023-07-31T08:04:39;97315.28;;;16.86;89.17
49194;BME280;35029;50.804;12.866;2023-07-31T08:07:07;97317.63;;;16.82;89.03
49194;BME280;35029;50.804;12.866;2023-07-31T08:09:33;97314.09;;;16.77;89.73
49194;BME280;35029;50.804;12.866;2023-07-31T08:12:01;97313.72;;;16.68;89.46
49194;BME280;35029;50.804;12.866;2023-07-31T08:14:28;97323.13;;;16.70;90.06
49194;BME280;35029;50.804;12.866;2023-07-31T08:16:55;97324.41;;;16.68;90.65
49194;BME280;35029;50.804;12.866;2023-07-31T08:19:22;97275.47;;;16.33;89.94
49194;BME280;35029;50.804;12.866;2023-07-31T08:21:48;97312.91;;;16.50;90.16
49194;BME280;35029;50.804;12.866;2023-07-31T08:24:13;97331.47;;;16.57;89.64
49194;BME280;35029;50.804;12.866;2023-07-31T08:26:39;97313.38;;;16.64;91.04
49194;BME280;35029;50.804;12.866;2023-07-31T08:29:04;97315.50;;;16.62;91.34
49194;BME280;35029;50.804;12.866;2023-07-31T08:31:30;97318.31;;;16.72;90.46
49194;BME280;35029;50.804;12.866;2023-07-31T08:33:56;97329.00;;;16.72;91.14
49194;BME280;35029;50.804;12.866;2023-07-31T08:36:21;97327.97;;;16.73;91.59
49194;BME280;35029;50.804;12.866;2023-07-31T08:38:47;97327.41;;;16.71;90.08
49194;BME280;35029;50.804;12.866;2023-07-31T08:41:13;97320.69;;;16.69;90.45
49194;BME280;35029;50.804;12.866;2023-07-31T08:43:39;97304.84;;;16.67;90.54
49194;BME280;35029;50.804;12.866;2023-07-31T08:46:05;97326.38;;;16.89;91.15
49194;BME280;35029;50.804;12.866;2023-07-31T08:48:31;97314.56;;;16.90;91.76
49194;BME280;35029;50.804;12.866;2023-07-31T08:50:58;97322.03;;;16.88;89.53
49194;BME280;35029;50.804;12.866;2023-07-31T08:53:24;97318.09;;;16.91;89.51
49194;BME280;35029;50.804;12.866;2023-07-31T08:55:52;97322.22;;;16.99;90.27
49194;BME280;35029;50.804;12.866;2023-07-31T08:58:18;97317.03;;;16.92;89.90
49194;BME280;35029;50.804;12.866;2023-07-31T09:00:46;97317.16;;;17.02;89.57
49194;BME280;35029;50.804;12.866;2023-07-31T09:03:17;97306.31;;;16.92;88.10
49194;BME280;35029;50.804;12.866;2023-07-31T09:05:45;97316.66;;;17.05;89.10
49194;BME280;35029;50.804;12.866;2023-07-31T09:08:18;97321.34;;;17.15;89.73
49194;BME280;35029;50.804;12.866;2023-07-31T09:10:45;97316.44;;;17.07;88.79
49194;BME280;35029;50.804;12.866;2023-07-31T09:13:14;97313.63;;;17.19;90.01
49194;BME280;35029;50.804;12.866;2023-07-31T09:15:41;97311.59;;;17.26;90.49
49194;BME280;35029;50.804;12.866;2023-07-31T09:18:08;97309.84;;;17.37;90.81
49194;BME280;35029;50.804;12.866;2023-07-31T09:20:34;97298.91;;;17.21;88.75
49194;BME280;35029;50.804;12.866;2023-07-31T09:23:10;97324.53;;;17.34;87.94
49194;BME280;35029;50.804;12.866;2023-07-31T09:25:37;97317.63;;;17.38;89.21
49194;BME280;35029;50.804;12.866;2023-07-31T09:28:05;97319.78;;;17.42;87.62
49194;BME280;35029;50.804;12.866;2023-07-31T09:30:44;97308.03;;;17.43;88.09
49194;BME280;35029;50.804;12.866;2023-07-31T09:33:10;97309.69;;;17.49;87.99
49194;BME280;35029;50.804;12.866;2023-07-31T09:35:36;97295.56;;;17.53;87.18
49194;BME280;35029;50.804;12.866;2023-07-31T09:38:10;97304.56;;;17.69;87.38
49194;BME280;35029;50.804;12.866;2023-07-31T09:40:40;97304.16;;;17.83;89.35
49194;BME280;35029;50.804;12.866;2023-07-31T09:43:08;97293.84;;;17.97;89.22
49194;BME280;35029;50.804;12.866;2023-07-31T09:45:37;97284.69;;;17.93;86.22
49194;BME280;35029;50.804;12.866;2023-07-31T09:48:06;97290.19;;;18.03;85.32
49194;BME280;35029;50.804;12.866;2023-07-31T09:50:37;97303.91;;;18.06;84.94
49194;BME280;35029;50.804;12.866;2023-07-31T09:53:03;97284.13;;;18.18;84.89
49194;BME280;35029;50.804;12.866;2023-07-31T09:55:29;97291.88;;;18.47;84.36
49194;BME280;35029;50.804;12.866;2023-07-31T09:57:57;97290.09;;;18.63;84.86
49194;BME280;35029;50.804;12.866;2023-07-31T10:00:23;97288.06;;;18.85;83.11
49194;BME280;35029;50.804;12.866;2023-07-31T10:02:51;97282.78;;;18.90;81.70
49194;BME280;35029;50.804;12.866;2023-07-31T10:05:19;97279.31;;;18.95;80.11
49194;BME280;35029;50.804;12.866;2023-07-31T10:07:54;97275.53;;;18.91;80.70
49194;BME280;35029;50.804;12.866;2023-07-31T10:10:21;97273.53;;;18.76;80.82
49194;BME280;35029;50.804;12.866;2023-07-31T10:12:52;97275.97;;;18.78;80.77
49194;BME280;35029;50.804;12.866;2023-07-31T10:15:18;97272.22;;;18.84;80.50
49194;BME280;35029;50.804;12.866;2023-07-31T10:17:47;97261.56;;;18.89;81.41
49194;BME280;35029;50.804;12.866;2023-07-31T10:20:14;97265.50;;;18.76;80.48
49194;BME280;35029;50.804;12.866;2023-07-31T10:22:42;97266.94;;;18.94;80.29
49194;BME280;35029;50.804;12.866;2023-07-31T10:25:09;97263.06;;;19.22;80.30
49194;BME280;35029;50.804;12.866;2023-07-31T10:27:36;97262.78;;;19.29;81.09
49194;BME280;35029;50.804;12.866;2023-07-31T10:30:08;97255.22;;;19.11;80.37
49194;BME280;35029;50.804;12.866;2023-07-31T10:32:34;97251.72;;;19.15;81.69
49194;BME280;35029;50.804;12.866;2023-07-31T10:35:02;97237.72;;;19.03;82.98
49194;BME280;35029;50.804;12.866;2023-07-31T10:37:35;97266.44;;;19.02;86.29
49194;BME280;35029;50.804;12.866;2023-07-31T10:40:05;97260.97;;;18.87;85.88
49194;BME280;35029;50.804;12.866;2023-07-31T10:42:35;97255.72;;;19.02;86.99
49194;BME280;35029;50.804;12.866;2023-07-31T10:45:04;97252.53;;;19.16;90.01
49194;BME280;35029;50.804;12.866;2023-07-31T10:47:30;97248.75;;;19.06;85.09
49194;BME280;35029;50.804;12.866;2023-07-31T10:50:20;97253.41;;;19.27;81.49
49194;BME280;35029;50.804;12.866;2023-07-31T10:52:53;97245.66;;;19.56;81.02
49194;BME280;35029;50.804;12.866;2023-07-31T10:55:38;97247.09;;;19.89;82.56
49194;BME280;35029;50.804;12.866;2023-07-31T10:58:11;97236.06;;;19.86;80.97
49194;BME280;35029;50.804;12.866;2023-07-31T11:00:41;97230.94;;;20.00;81.21
49194;BME280;35029;50.804;12.866;2023-07-31T11:08:27;97228.22;;;19.79;76.74
49194;BME280;35029;50.804;12.866;2023-07-31T11:11:10;97221.28;;;20.04;78.44
49194;BME280;35029;50.804;12.866;2023-07-31T11:13:50;97230.44;;;19.98;76.54
49194;BME280;35029;50.804;12.866;2023-07-31T11:16:30;97219.63;;;19.72;76.25
49194;BME280;35029;50.804;12.866;2023-07-31T11:19:01;97211.84;;;19.86;76.63
49194;BME280;35029;50.804;12.866;2023-07-31T11:21:32;97223.44;;;20.02;77.04
49194;BME280;35029;50.804;12.866;2023-07-31T11:23:58;97206.97;;;19.72;75.51
49194;BME280;35029;50.804;12.866;2023-07-31T11:26:35;97214.81;;;20.00;73.80
49194;BME280;35029;50.804;12.866;2023-07-31T11:29:10;97215.63;;;19.95;73.65
49194;BME280;35029;50.804;12.866;2023-07-31T11:31:42;97203.53;;;20.03;71.15
49194;BME280;35029;50.804;12.866;2023-07-31T11:34:08;97207.56;;;20.21;69.54
49194;BME280;35029;50.804;12.866;2023-07-31T11:36:33;97210.22;;;20.31;69.58
49194;BME280;35029;50.804;12.866;2023-07-31T11:39:06;97201.06;;;20.32;70.39
49194;BME280;35029;50.804;12.866;2023-07-31T11:41:32;97193.53;;;20.19;71.45
49194;BME280;35029;50.804;12.866;2023-07-31T11:44:01;97206.47;;;20.17;70.28
49194;BME280;35029;50.804;12.866;2023-07-31T11:46:30;97204.06;;;20.10;70.01
49194;BME280;35029;50.804;12.866;2023-07-31T11:49:00;97197.59;;;20.01;69.58
49194;BME280;35029;50.804;12.866;2023-07-31T11:51:29;97201.91;;;19.86;71.15
49194;BME280;35029;50.804;12.866;2023-07-31T11:54:00;97193.56;;;19.83;71.40
49194;BME280;35029;50.804;12.866;2023-07-31T11:56:27;97201.09;;;19.81;71.21
49194;BME280;35029;50.804;12.866;2023-07-31T11:58:59;97197.56;;;19.75;69.93
49194;BME280;35029;50.804;12.866;2023-07-31T12:01:27;97200.03;;;19.82;70.48
49194;BME280;35029;50.804;12.866;2023-07-31T12:03:53;97191.91;;;19.76;70.26
49194;BME280;35029;50.804;12.866;2023-07-31T12:06:19;97196.28;;;19.88;70.64
49194;BME280;35029;50.804;12.866;2023-07-31T12:08:48;97195.06;;;20.76;69.45
49194;BME280;35029;50.804;12.866;2023-07-31T12:11:14;97175.16;;;20.72;66.83
49194;BME280;35029;50.804;12.866;2023-07-31T12:13:40;97177.19;;;21.01;67.15
49194;BME280;35029;50.804;12.866;2023-07-31T12:16:06;97166.63;;;21.10;66.08
49194;BME280;35029;50.804;12.866;2023-07-31T12:18:37;97167.94;;;21.18;66.26
49194;BME280;35029;50.804;12.866;2023-07-31T12:21:07;97153.44;;;21.08;65.86
49194;BME280;35029;50.804;12.866;2023-07-31T12:23:35;97156.13;;;21.08;65.51
49194;BME280;35029;50.804;12.866;2023-07-31T12:28:29;97159.19;;;20.91;63.24
49194;BME280;35029;50.804;12.866;2023-07-31T12:30:59;97166.38;;;21.06;64.21
49194;BME280;35029;50.804;12.866;2023-07-31T12:33:31;97163.31;;;21.23;66.29
49194;BME280;35029;50.804;12.866;2023-07-31T12:35:57;97160.69;;;21.13;65.24
49194;BME280;35029;50.804;12.866;2023-07-31T12:38:22;97152.97;;;20.91;64.57
49194;BME280;35029;50.804;12.866;2023-07-31T12:40:48;97160.56;;;20.89;63.30
49194;BME280;35029;50.804;12.866;2023-07-31T12:43:13;97155.59;;;21.06;65.59
49194;BME280;35029;50.804;12.866;2023-07-31T12:45:39;97156.44;;;20.97;64.19
49194;BME280;35029;50.804;12.866;2023-07-31T12:48:04;97141.41;;;20.90;65.37
49194;BME280;35029;50.804;12.866;2023-07-31T12:50:30;97131.16;;;20.87;64.36
49194;BME280;35029;50.804;12.866;2023-07-31T12:52:56;97116.44;;;20.74;65.56
49194;BME280;35029;50.804;12.866;2023-07-31T12:55:22;97122.00;;;20.88;67.14
49194;BME280;35029;50.804;12.866;2023-07-31T12:57:49;97109.91;;;20.86;66.58
49194;BME280;35029;50.804;12.866;2023-07-31T13:00:15;97127.69;;;20.82;65.71
49194;BME280;35029;50.804;12.866;2023-07-31T13:02:41;97125.00;;;20.87;65.64